Time;durP1;ratioP1;P1;durP2;ratioP2;P2;SDS_P1;SDS_P2;PMS_P1;PMS_P2;Temp;Humidity;BMP_temperature;BMP_pressure;BME280_temperature;BME280_humidity;BME280_pressure;Samples;Min_cycle;Max_cycle;Signal;HPM_P1;HPM_P2
2023/04/30 00:01:28;;;;;;;10.95;4.22;;;;;;;6.34;71.27;101744.16;5055950;28;20116;-55
2023/04/30 00:03:54;;;;;;;10.23;4.35;;;;;;;6.28;70.83;101738.06;5036819;28;20044;-55
2023/04/30 00:06:20;;;;;;;6.85;3.17;;;;;;;6.19;70.87;101745.19;5078030;28;20067;-55
2023/04/30 00:08:45;;;;;;;8.18;4.28;;;;;;;6.23;71.01;101743.41;5095181;28;20078;-56
2023/04/30 00:11:10;;;;;;;6.63;3.22;;;;;;;6.19;71.97;101744.31;5078541;28;20413;-56
2023/04/30 00:13:36;;;;;;;7.05;4.05;;;;;;;6.10;71.70;101737.44;5084386;28;20028;-55
2023/04/30 00:16:01;;;;;;;6.60;3.67;;;;;;;5.99;72.89;101742.78;5094252;28;20024;-56
2023/04/30 00:18:26;;;;;;;7.88;3.65;;;;;;;5.99;71.94;101742.78;5098903;28;20491;-56
2023/04/30 00:20:52;;;;;;;17.58;4.63;;;;;;;5.97;71.53;101749.81;5095732;28;20028;-55
2023/04/30 00:23:17;;;;;;;9.07;3.33;;;;;;;6.04;70.82;101756.72;5054646;28;20028;-55
2023/04/30 00:25:43;;;;;;;9.98;3.60;;;;;;;5.98;70.39;101755.91;5037051;28;20025;-56
2023/04/30 00:28:08;;;;;;;9.88;3.70;;;;;;;5.87;71.55;101754.25;5056182;28;20024;-56
2023/04/30 00:30:34;;;;;;;10.35;3.88;;;;;;;5.79;71.62;101757.84;5067447;28;20430;-56
2023/04/30 00:32:59;;;;;;;7.80;2.90;;;;;;;5.72;72.34;101754.38;5054322;28;20066;-55
2023/04/30 00:35:24;;;;;;;5.28;2.65;;;;;;;5.57;72.42;101763.25;5055078;28;20036;-56
2023/04/30 00:37:50;;;;;;;8.55;2.88;;;;;;;5.60;72.71;101765.00;5054186;28;20455;-56
2023/04/30 00:40:15;;;;;;;15.20;4.13;;;;;;;5.50;72.96;101769.47;5036395;28;20037;-56
2023/04/30 00:42:41;;;;;;;11.05;3.97;;;;;;;5.44;72.91;101770.38;5075255;28;20029;-56
2023/04/30 00:45:07;;;;;;;9.13;3.47;;;;;;;5.23;73.88;101770.53;5057208;28;20037;-56
2023/04/30 00:47:32;;;;;;;8.15;3.80;;;;;;;5.11;74.14;101771.50;5073863;28;20074;-56
2023/04/30 00:49:58;;;;;;;9.40;4.57;;;;;;;5.02;75.03;101771.53;5084825;28;20027;-56
2023/04/30 00:52:23;;;;;;;11.63;3.50;;;;;;;4.94;75.86;101780.31;5065592;28;20040;-55
2023/04/30 00:54:49;;;;;;;10.73;3.75;;;;;;;4.83;75.39;101776.91;5036209;28;20067;-55
2023/04/30 00:57:14;;;;;;;11.38;4.07;;;;;;;4.85;77.01;101792.59;5039628;28;20040;-56
2023/04/30 00:59:40;;;;;;;9.75;5.38;;;;;;;4.88;77.76;101789.97;5085040;28;20023;-56
2023/04/30 01:02:06;;;;;;;10.52;6.00;;;;;;;4.89;78.17;101799.59;5050612;28;20115;-56
2023/04/30 01:04:32;;;;;;;12.82;6.38;;;;;;;5.00;78.00;101802.13;5073641;28;20029;-56
2023/04/30 01:07:00;;;;;;;13.90;6.28;;;;;;;5.02;77.84;101808.22;5083700;28;20038;-56
2023/04/30 01:09:27;;;;;;;14.13;5.97;;;;;;;5.04;78.14;101803.88;5080683;28;20329;-55
2023/04/30 01:12:11;;;;;;;11.85;5.25;;;;;;;5.02;77.40;101802.97;5073545;28;20119;-56
2023/04/30 01:14:49;;;;;;;8.60;5.60;;;;;;;4.96;77.52;101802.16;5054049;28;20028;-56
2023/04/30 01:17:34;;;;;;;12.70;5.60;;;;;;;4.93;77.61;101804.78;5067285;28;20035;-56
2023/04/30 01:20:00;;;;;;;8.43;4.90;;;;;;;4.89;77.89;101817.94;5049943;28;20106;-56
2023/04/30 01:22:25;;;;;;;9.32;4.90;;;;;;;4.80;78.04;101813.59;5035586;28;20064;-55
2023/04/30 01:25:05;;;;;;;16.15;5.97;;;;;;;4.72;78.95;101815.38;5065029;28;20571;-56
2023/04/30 01:27:57;;;;;;;8.27;5.07;;;;;;;4.70;78.87;101820.63;5053146;28;20048;-56
2023/04/30 01:30:22;;;;;;;10.98;4.97;;;;;;;4.66;78.30;101815.38;5058845;28;20026;-55
2023/04/30 01:32:48;;;;;;;10.32;4.97;;;;;;;4.68;78.11;101824.13;5072042;28;20025;-56
2023/04/30 01:35:13;;;;;;;7.13;4.57;;;;;;;4.60;78.63;101822.41;5084214;28;20055;-56
2023/04/30 01:38:02;;;;;;;12.25;4.97;;;;;;;4.57;78.53;101822.41;5072914;28;20039;-55
2023/04/30 01:40:41;;;;;;;19.00;4.18;;;;;;;4.56;78.00;101825.03;5039106;28;20025;-56
2023/04/30 01:43:28;;;;;;;7.60;3.80;;;;;;;4.56;78.25;101828.53;5052330;28;20048;-56
2023/04/30 01:46:28;;;;;;;6.80;4.18;;;;;;;4.55;78.40;101826.78;5075270;28;20349;-56
2023/04/30 01:48:59;;;;;;;7.75;4.55;;;;;;;4.47;77.77;101836.41;5035402;28;20365;-55
2023/04/30 01:51:39;;;;;;;9.57;4.13;;;;;;;4.41;77.89;101837.31;5067359;28;20104;-56
2023/04/30 01:54:48;;;;;;;10.05;3.97;;;;;;;4.39;77.96;101843.41;5052097;28;20488;-55
2023/04/30 01:57:35;;;;;;;10.32;4.82;;;;;;;4.41;77.87;101846.91;5052143;28;20037;-56
2023/04/30 02:00:02;;;;;;;9.32;3.55;;;;;;;4.38;77.29;101847.78;5053959;28;20028;-55
2023/04/30 02:02:27;;;;;;;10.85;3.85;;;;;;;4.27;77.37;101848.66;5053643;28;20032;-56
2023/04/30 02:04:52;;;;;;;5.97;3.05;;;;;;;4.17;77.76;101855.69;5056770;28;20453;-56
2023/04/30 02:07:31;;;;;;;8.25;3.78;;;;;;;4.20;78.30;101848.69;5092849;28;20081;-55
2023/04/30 02:09:56;;;;;;;10.73;4.10;;;;;;;4.13;78.29;101852.19;5066413;28;20024;-55
2023/04/30 02:12:22;;;;;;;18.88;4.63;;;;;;;4.10;78.66;101856.56;5084570;28;20047;-56
2023/04/30 02:14:47;;;;;;;8.27;4.00;;;;;;;3.96;78.67;101865.28;5092130;28;20020;-56
2023/04/30 02:17:12;;;;;;;11.25;4.18;;;;;;;3.85;79.28;101878.34;5075034;28;20033;-56
2023/04/30 02:19:38;;;;;;;8.63;4.00;;;;;;;3.81;79.59;101876.63;5079204;28;20020;-55
2023/04/30 02:22:03;;;;;;;11.88;3.83;;;;;;;3.86;79.63;101874.03;5077093;28;20070;-56
2023/04/30 02:24:28;;;;;;;14.25;4.82;;;;;;;3.85;80.06;101862.66;5072581;28;20322;-56
2023/04/30 02:26:54;;;;;;;12.02;3.78;;;;;;;3.78;80.29;101868.78;5056798;28;20029;-56
2023/04/30 02:29:19;;;;;;;10.70;4.90;;;;;;;3.80;81.03;101880.09;5075139;28;20043;-55
2023/04/30 02:31:44;;;;;;;9.68;4.18;;;;;;;3.90;80.74;101873.13;5070739;28;20028;-56
2023/04/30 02:34:10;;;;;;;9.05;4.30;;;;;;;3.82;81.12;101888.81;5078564;28;20099;-55
2023/04/30 02:36:35;;;;;;;10.18;4.07;;;;;;;3.79;81.50;101883.63;5072249;28;20047;-56
2023/04/30 02:39:01;;;;;;;9.32;4.43;;;;;;;3.81;81.68;101881.88;5073141;28;20032;-56
2023/04/30 02:41:26;;;;;;;10.77;4.70;;;;;;;3.79;81.64;101877.50;5061266;28;20416;-56
2023/04/30 02:43:51;;;;;;;7.65;4.45;;;;;;;3.83;81.64;101885.34;5086482;28;20032;-56
2023/04/30 02:46:17;;;;;;;14.10;4.40;;;;;;;3.85;81.29;101887.97;5076201;28;20112;-55
2023/04/30 02:48:43;;;;;;;13.25;4.72;;;;;;;3.80;81.46;101885.34;5079100;28;20306;-56
2023/04/30 02:51:08;;;;;;;9.93;4.75;;;;;;;3.86;81.00;101885.34;5081682;28;20043;-55
2023/04/30 02:53:34;;;;;;;12.57;4.82;;;;;;;3.76;80.96;101883.59;5076267;28;20131;-55
2023/04/30 02:56:00;;;;;;;13.82;4.55;;;;;;;3.70;81.65;101888.81;5076425;28;20070;-55
2023/04/30 02:58:25;;;;;;;10.50;4.40;;;;;;;3.66;82.06;101892.28;5058422;28;20119;-55
2023/04/30 03:00:51;;;;;;;11.18;4.75;;;;;;;3.60;81.74;101892.31;5076986;28;20667;-55
2023/04/30 03:03:16;;;;;;;10.70;4.63;;;;;;;3.57;82.34;101887.06;5078822;28;20124;-55
2023/04/30 03:05:41;;;;;;;8.60;4.90;;;;;;;3.55;82.05;101900.13;5078822;28;20023;-55
2023/04/30 03:08:07;;;;;;;9.88;4.25;;;;;;;3.60;82.22;101897.53;5074787;28;20127;-55
2023/04/30 03:10:32;;;;;;;17.65;4.95;;;;;;;3.57;82.09;101902.75;5079877;28;20102;-55
2023/04/30 03:12:57;;;;;;;16.00;4.75;;;;;;;3.52;82.17;101914.94;5075419;28;20037;-56
2023/04/30 03:15:23;;;;;;;8.65;4.93;;;;;;;3.51;82.02;101918.41;5076960;28;20444;-56
2023/04/30 03:17:48;;;;;;;11.32;4.25;;;;;;;3.43;82.44;101921.91;5075403;28;20041;-56
2023/04/30 03:20:13;;;;;;;13.45;4.00;;;;;;;3.47;82.28;101918.41;5077937;28;20020;-55
2023/04/30 03:22:39;;;;;;;8.27;4.18;;;;;;;3.48;82.28;101922.78;5074655;28;20349;-56
2023/04/30 03:25:05;;;;;;;10.23;4.32;;;;;;;3.46;82.19;101927.13;5078129;28;20017;-55
2023/04/30 03:27:30;;;;;;;18.15;6.90;;;;;;;3.36;82.65;101925.34;5077383;28;20032;-57
2023/04/30 03:29:55;;;;;;;8.32;4.70;;;;;;;3.30;83.05;101923.59;5076413;28;20056;-55
2023/04/30 03:32:21;;;;;;;10.52;4.68;;;;;;;3.27;83.41;101925.31;5076932;28;20028;-55
2023/04/30 03:34:46;;;;;;;14.10;4.45;;;;;;;3.33;82.61;101927.94;5074503;28;20082;-55
2023/04/30 03:37:11;;;;;;;8.98;5.53;;;;;;;3.32;82.80;101923.63;5061476;28;20033;-56
2023/04/30 03:39:37;;;;;;;14.30;4.72;;;;;;;3.28;83.07;101930.53;5058332;28;20024;-56
2023/04/30 03:42:02;;;;;;;7.07;4.68;;;;;;;3.33;83.25;101925.34;5055884;28;20050;-56
2023/04/30 03:44:28;;;;;;;12.68;5.00;;;;;;;3.27;82.89;101930.53;5072944;28;20090;-55
2023/04/30 03:46:53;;;;;;;11.63;4.80;;;;;;;3.23;83.43;101931.41;5075116;28;20036;-56
2023/04/30 03:49:19;;;;;;;10.00;5.13;;;;;;;3.16;83.79;101932.28;5074256;28;20043;-55
2023/04/30 03:51:44;;;;;;;6.22;4.05;;;;;;;3.20;83.72;101931.41;5075161;28;20123;-55
2023/04/30 03:54:09;;;;;;;12.52;4.82;;;;;;;3.18;83.74;101938.38;5077877;28;20456;-56
2023/04/30 03:56:35;;;;;;;19.38;6.20;;;;;;;3.22;83.43;101947.94;5074301;28;20097;-56
2023/04/30 03:59:01;;;;;;;11.20;5.60;;;;;;;3.15;83.37;101951.41;5052101;28;20020;-56
2023/04/30 04:01:26;;;;;;;15.18;4.82;;;;;;;3.14;83.65;101945.31;5074033;28;20071;-56
2023/04/30 04:03:52;;;;;;;15.10;6.13;;;;;;;3.11;83.70;101951.41;5056336;28;20511;-56
2023/04/30 04:06:18;;;;;;;15.05;4.85;;;;;;;3.04;83.80;101939.19;5076548;28;20024;-56
2023/04/30 04:08:43;;;;;;;14.55;4.88;;;;;;;3.20;82.89;101949.69;5076063;28;20016;-55
2023/04/30 04:11:09;;;;;;;7.68;4.97;;;;;;;3.13;83.84;101957.50;5072427;28;20346;-56
2023/04/30 04:13:35;;;;;;;11.63;4.60;;;;;;;3.02;83.82;101963.53;5058584;28;20116;-55
2023/04/30 04:16:00;;;;;;;8.82;4.18;;;;;;;2.92;83.73;101960.00;5074107;28;20051;-56
2023/04/30 04:18:25;;;;;;;15.90;4.30;;;;;;;2.95;84.19;101965.25;5073207;28;20052;-55
2023/04/30 04:20:51;;;;;;;12.95;5.03;;;;;;;2.91;83.95;101966.06;5069204;28;20479;-56
2023/04/30 04:23:16;;;;;;;10.32;4.55;;;;;;;3.09;83.16;101974.03;5073577;28;20016;-55
2023/04/30 04:25:43;;;;;;;8.60;4.30;;;;;;;3.09;83.37;101968.81;5072675;28;20589;-56
2023/04/30 04:28:08;;;;;;;19.98;4.35;;;;;;;3.22;82.69;101984.53;5071847;28;20028;-55
2023/04/30 04:30:35;;;;;;;15.38;5.07;;;;;;;3.40;81.38;101994.19;5070086;28;20033;-56
2023/04/30 04:33:00;;;;;;;17.17;5.00;;;;;;;3.36;81.27;101993.31;5073957;28;20460;-55
2023/04/30 04:35:26;;;;;;;11.05;5.03;;;;;;;3.46;80.70;101995.06;5069941;28;20069;-56
2023/04/30 04:37:51;;;;;;;13.70;4.35;;;;;;;3.44;80.69;101995.97;5074466;28;20127;-56
2023/04/30 04:40:17;;;;;;;16.42;5.72;;;;;;;3.40;81.24;101988.97;5071703;28;20644;-55
2023/04/30 04:42:42;;;;;;;11.93;4.43;;;;;;;3.46;81.03;101997.69;5073057;28;20035;-55
2023/04/30 04:45:08;;;;;;;9.32;4.35;;;;;;;3.47;80.73;102002.06;5068670;28;20112;-55
2023/04/30 04:47:34;;;;;;;14.27;4.53;;;;;;;3.48;80.37;101993.38;5069790;28;20040;-55
2023/04/30 04:49:59;;;;;;;12.25;4.18;;;;;;;3.47;81.01;102007.28;5065315;28;20044;-55
2023/04/30 04:52:25;;;;;;;16.25;4.50;;;;;;;3.49;80.25;102010.78;5065553;28;20103;-55
2023/04/30 04:54:50;;;;;;;21.67;5.55;;;;;;;3.49;80.78;102010.78;5064739;28;20098;-55
2023/04/30 04:57:15;;;;;;;13.60;4.28;;;;;;;3.55;80.05;102017.78;5057211;28;20039;-56
2023/04/30 04:59:41;;;;;;;18.50;4.57;;;;;;;3.60;79.82;102017.81;5063050;28;20098;-55
2023/04/30 05:02:06;;;;;;;19.25;5.25;;;;;;;3.64;79.59;102022.16;5059986;28;20043;-56
2023/04/30 05:04:32;;;;;;;12.07;4.10;;;;;;;3.65;79.80;102022.19;5071141;28;20359;-55
2023/04/30 05:06:57;;;;;;;10.60;3.97;;;;;;;3.68;79.68;102029.16;5080013;28;20036;-55
2023/04/30 05:09:23;;;;;;;10.27;4.40;;;;;;;3.74;79.59;102029.16;5073216;28;20028;-55
2023/04/30 05:11:48;;;;;;;12.82;4.15;;;;;;;3.84;79.54;102028.34;5069612;28;20165;-55
2023/04/30 05:14:14;;;;;;;16.25;4.90;;;;;;;3.78;79.47;102032.69;5073934;28;20107;-55
2023/04/30 05:16:39;;;;;;;12.38;4.38;;;;;;;3.83;79.91;102031.81;5070847;28;20021;-55
2023/04/30 05:19:04;;;;;;;15.85;5.10;;;;;;;3.99;77.87;102030.13;5070126;28;20024;-55
2023/04/30 05:21:30;;;;;;;18.67;5.22;;;;;;;3.99;78.89;102043.19;5073128;28;20020;-55
2023/04/30 05:23:56;;;;;;;11.25;5.05;;;;;;;3.98;77.98;102045.81;5074407;28;20024;-55
2023/04/30 05:26:23;;;;;;;14.70;5.57;;;;;;;4.07;77.85;102045.84;5072214;28;20039;-55
2023/04/30 05:28:49;;;;;;;17.70;4.97;;;;;;;4.10;78.23;102047.56;5062706;28;20032;-55
2023/04/30 05:31:15;;;;;;;11.43;4.45;;;;;;;4.25;76.50;102044.09;5062687;28;20036;-55
2023/04/30 05:33:40;;;;;;;8.85;4.28;;;;;;;4.30;76.73;102050.22;5068063;28;20311;-55
2023/04/30 05:36:06;;;;;;;21.77;5.82;;;;;;;4.26;76.87;102058.94;5064774;28;20048;-55
2023/04/30 05:38:31;;;;;;;13.88;5.05;;;;;;;4.33;76.58;102053.75;5066182;28;20032;-55
2023/04/30 05:40:57;;;;;;;11.68;4.85;;;;;;;4.29;77.02;102066.81;5070913;28;20033;-55
2023/04/30 05:43:22;;;;;;;11.85;4.35;;;;;;;4.35;76.63;102057.22;5062443;28;20361;-55
2023/04/30 05:45:47;;;;;;;15.00;4.68;;;;;;;4.43;76.17;102054.63;5070791;28;20029;-55
2023/04/30 05:48:13;;;;;;;14.43;4.47;;;;;;;4.47;75.52;102063.34;5070139;28;20124;-55
2023/04/30 05:50:38;;;;;;;15.63;4.03;;;;;;;4.47;75.37;102072.06;5060069;28;20048;-55
2023/04/30 05:53:04;;;;;;;12.98;4.93;;;;;;;4.51;74.90;102079.06;5055647;28;20108;-56
2023/04/30 05:55:29;;;;;;;17.02;5.40;;;;;;;4.59;74.42;102072.09;5059231;28;20025;-55
2023/04/30 05:57:55;;;;;;;13.02;4.85;;;;;;;4.66;74.38;102067.72;5060783;28;20112;-56
2023/04/30 06:00:20;;;;;;;21.58;4.53;;;;;;;4.68;74.59;102075.56;5071807;28;20078;-56
2023/04/30 06:02:46;;;;;;;16.80;4.45;;;;;;;4.77;73.88;102080.78;5072567;28;20329;-56
2023/04/30 06:05:11;;;;;;;25.45;9.43;;;;;;;4.79;74.72;102081.69;5062465;28;20179;-55
2023/04/30 06:07:37;;;;;;;20.75;5.57;;;;;;;4.81;74.49;102074.69;5061775;28;20089;-55
2023/04/30 06:10:03;;;;;;;15.32;6.18;;;;;;;4.86;73.57;102083.41;5069462;28;20037;-55
2023/04/30 06:12:28;;;;;;;7.05;3.75;;;;;;;4.83;73.49;102083.41;5071866;28;20027;-56
2023/04/30 06:14:53;;;;;;;11.77;4.30;;;;;;;4.93;73.28;102084.28;5070067;28;20429;-55
2023/04/30 06:17:19;;;;;;;9.25;3.92;;;;;;;5.06;73.42;102085.16;5071601;28;20110;-55
2023/04/30 06:19:44;;;;;;;10.60;4.32;;;;;;;5.03;72.79;102098.25;5075886;28;20044;-56
2023/04/30 06:22:10;;;;;;;10.13;4.13;;;;;;;5.11;73.27;102096.50;5076873;28;20056;-55
2023/04/30 06:24:35;;;;;;;12.23;5.10;;;;;;;5.22;72.52;102091.25;5077895;28;20092;-56
2023/04/30 06:27:01;;;;;;;19.25;4.60;;;;;;;5.27;72.24;102092.09;5074905;28;20112;-55
2023/04/30 06:29:27;;;;;;;12.52;4.43;;;;;;;5.33;71.15;102097.34;5075792;28;20357;-55
2023/04/30 06:31:52;;;;;;;16.98;4.60;;;;;;;5.38;71.43;102099.91;5075101;28;20036;-57
2023/04/30 06:34:18;;;;;;;26.23;7.65;;;;;;;5.41;71.71;102094.66;5071916;28;20031;-55
2023/04/30 06:36:44;;;;;;;26.63;9.02;;;;;;;5.46;72.22;102100.78;5046820;28;20021;-55
2023/04/30 06:39:09;;;;;;;14.60;4.80;;;;;;;5.58;70.59;102098.13;5071214;28;20021;-55
2023/04/30 06:41:35;;;;;;;10.73;3.95;;;;;;;5.57;69.43;102101.63;5069529;28;20426;-56
2023/04/30 06:44:00;;;;;;;17.70;5.05;;;;;;;5.62;69.68;102099.88;5064540;28;20104;-56
2023/04/30 06:46:25;;;;;;;9.50;4.55;;;;;;;5.69;69.41;102106.84;5070991;28;20067;-55
2023/04/30 06:48:51;;;;;;;16.38;5.13;;;;;;;5.86;68.87;102108.50;5075160;28;20542;-56
2023/04/30 06:51:16;;;;;;;10.73;4.55;;;;;;;5.91;68.96;102106.75;5071169;28;20036;-55
2023/04/30 06:53:42;;;;;;;13.52;4.22;;;;;;;6.05;67.87;102110.22;5063844;28;20048;-56
2023/04/30 06:56:07;;;;;;;9.90;4.00;;;;;;;6.03;67.03;102106.72;5066798;28;20032;-57
2023/04/30 06:58:33;;;;;;;12.60;5.32;;;;;;;6.07;66.28;102097.06;5073187;28;20029;-56
2023/04/30 07:00:58;;;;;;;14.68;4.30;;;;;;;6.06;66.62;102100.56;5062673;28;20024;-56
2023/04/30 07:03:23;;;;;;;22.48;5.22;;;;;;;6.11;66.62;102097.94;5057719;28;20036;-57
2023/04/30 07:05:50;;;;;;;8.15;3.67;;;;;;;6.21;66.40;102094.34;5080435;28;20466;-55
2023/04/30 07:08:16;;;;;;;11.38;4.68;;;;;;;6.27;65.90;102098.72;5060337;28;20025;-57
2023/04/30 07:10:41;;;;;;;19.45;4.63;;;;;;;6.30;64.65;102099.56;5077841;28;20024;-58
2023/04/30 07:13:07;;;;;;;14.10;3.75;;;;;;;6.29;64.32;102103.06;5055559;28;20514;-57
2023/04/30 07:15:33;;;;;;;10.88;4.10;;;;;;;6.31;64.25;102101.31;5038153;28;20033;-58
2023/04/30 07:17:58;;;;;;;13.38;4.65;;;;;;;6.46;63.70;102104.69;5069022;28;20051;-57
2023/04/30 07:20:24;;;;;;;15.32;4.53;;;;;;;6.50;64.01;102104.69;5039431;28;20029;-57
2023/04/30 07:22:49;;;;;;;16.33;4.05;;;;;;;6.43;62.37;102098.59;5066334;28;20453;-57
2023/04/30 07:25:15;;;;;;;8.23;3.75;;;;;;;6.52;63.52;102099.41;5073660;28;20116;-56
2023/04/30 07:27:40;;;;;;;9.25;3.35;;;;;;;6.45;63.37;102102.97;5059340;28;20021;-55
2023/04/30 07:30:08;;;;;;;13.73;3.92;;;;;;;6.65;63.50;102101.06;5048582;28;20035;-55
2023/04/30 07:32:34;;;;;;;16.30;4.38;;;;;;;6.75;62.18;102105.38;5065893;28;20165;-57
2023/04/30 07:34:59;;;;;;;8.63;3.88;;;;;;;6.85;62.00;102100.03;5058700;28;20075;-55
2023/04/30 07:37:25;;;;;;;11.68;4.75;;;;;;;6.74;63.08;102094.88;5079692;28;20106;-55
2023/04/30 07:39:51;;;;;;;12.55;4.45;;;;;;;6.78;62.32;102100.09;5064752;28;20116;-56
2023/04/30 07:42:16;;;;;;;10.73;3.60;;;;;;;6.90;61.35;102103.47;5080884;28;20045;-56
2023/04/30 07:44:41;;;;;;;9.43;3.83;;;;;;;7.08;62.36;102103.34;5095132;28;20043;-56
2023/04/30 07:47:07;;;;;;;9.15;3.60;;;;;;;7.10;61.63;102119.97;5088925;28;20083;-56
2023/04/30 07:49:32;;;;;;;21.40;4.60;;;;;;;7.14;61.56;102107.66;5077422;28;20070;-55
2023/04/30 07:51:59;;;;;;;23.48;5.45;;;;;;;7.45;60.83;102109.97;5075049;28;20024;-56
2023/04/30 07:54:25;;;;;;;8.70;3.92;;;;;;;7.35;60.01;102098.66;5073184;28;20059;-56
2023/04/30 07:56:50;;;;;;;17.65;5.25;;;;;;;7.57;59.43;102109.84;5090096;28;20039;-56
2023/04/30 07:59:16;;;;;;;8.60;3.47;;;;;;;7.67;59.29;102103.56;5074452;28;20108;-55
2023/04/30 08:01:41;;;;;;;9.40;3.88;;;;;;;7.70;58.49;102105.31;5080863;28;20074;-56
2023/04/30 08:04:08;;;;;;;9.80;3.67;;;;;;;7.75;59.68;102106.13;5073328;28;20028;-56
2023/04/30 08:06:33;;;;;;;9.32;3.35;;;;;;;7.55;58.40;102111.59;5083610;28;20027;-57
2023/04/30 08:08:58;;;;;;;11.82;4.68;;;;;;;7.66;58.79;102108.84;5078669;28;20502;-55
2023/04/30 08:11:24;;;;;;;17.15;4.35;;;;;;;7.66;57.23;102119.38;5075100;28;20029;-55
2023/04/30 08:13:49;;;;;;;6.10;3.17;;;;;;;7.56;56.67;102112.50;5077255;28;20090;-56
2023/04/30 08:16:15;;;;;;;19.10;3.55;;;;;;;7.65;56.25;102117.63;5082828;28;20559;-56
2023/04/30 08:18:43;;;;;;;13.07;4.10;;;;;;;7.45;57.02;102105.56;5078681;28;20071;-55
2023/04/30 08:21:10;;;;;;;11.07;4.40;;;;;;;7.47;57.36;102119.59;5074388;28;20127;-55
2023/04/30 08:23:36;;;;;;;9.65;3.67;;;;;;;7.75;56.16;102127.19;5084923;28;20437;-56
2023/04/30 08:26:01;;;;;;;11.05;4.03;;;;;;;7.65;55.75;102128.16;5074416;28;20103;-56
2023/04/30 08:28:26;;;;;;;12.48;3.97;;;;;;;7.59;55.29;102128.25;5056892;28;20037;-56
2023/04/30 08:30:52;;;;;;;7.72;2.85;;;;;;;7.75;54.92;102123.66;5060270;28;20142;-56
2023/04/30 08:33:17;;;;;;;19.13;5.13;;;;;;;7.90;52.89;102128.75;5077373;28;20376;-55
2023/04/30 08:35:43;;;;;;;10.63;5.07;;;;;;;7.90;53.45;102123.47;5070165;28;20323;-56
2023/04/30 08:38:08;;;;;;;12.65;4.32;;;;;;;7.99;54.28;102127.75;5070944;28;20048;-56
2023/04/30 08:40:35;;;;;;;8.75;4.18;;;;;;;7.94;53.00;102119.91;5063169;28;20620;-55
2023/04/30 08:43:08;;;;;;;23.17;5.72;;;;;;;8.02;52.32;102117.19;5067933;28;20020;-56
2023/04/30 08:45:35;;;;;;;16.73;3.33;;;;;;;8.12;52.41;102123.19;5058817;28;20032;-56
2023/04/30 08:48:03;;;;;;;8.57;3.50;;;;;;;8.13;52.54;102125.81;5074351;28;20060;-55
2023/04/30 08:50:29;;;;;;;8.80;3.95;;;;;;;8.17;51.88;102116.97;5069428;28;20441;-55
2023/04/30 08:52:54;;;;;;;11.38;3.38;;;;;;;8.09;50.62;102122.34;5037276;28;20077;-57
2023/04/30 08:55:20;;;;;;;15.68;3.50;;;;;;;8.32;50.07;102126.44;5044547;28;20043;-56
2023/04/30 08:57:45;;;;;;;10.70;3.47;;;;;;;8.38;49.51;102115.78;5091600;28;24144;-56
2023/04/30 09:00:11;;;;;;;10.18;3.55;;;;;;;8.46;50.94;102134.16;5085007;28;20032;-56
2023/04/30 09:02:41;;;;;;;20.30;2.80;;;;;;;8.53;50.69;102135.78;5056006;28;20074;-57
2023/04/30 09:05:10;;;;;;;5.53;2.97;;;;;;;8.48;49.24;102135.00;5057225;28;20089;-57
2023/04/30 09:07:35;;;;;;;8.20;3.53;;;;;;;8.41;49.03;102128.91;5069418;28;20101;-58
2023/04/30 09:10:02;;;;;;;11.50;2.90;;;;;;;8.39;49.48;102127.22;5081546;28;20020;-57
2023/04/30 09:12:27;;;;;;;6.05;2.95;;;;;;;8.68;49.72;102131.19;5090069;28;20530;-57
2023/04/30 09:15:07;;;;;;;9.13;2.80;;;;;;;8.45;48.58;102129.78;5073611;28;20056;-56
2023/04/30 09:17:33;;;;;;;8.25;2.75;;;;;;;8.66;49.91;102131.22;5066413;28;20149;-56
2023/04/30 09:20:08;;;;;;;12.90;3.92;;;;;;;8.45;49.28;102128.03;5074468;28;20051;-56
2023/04/30 09:22:35;;;;;;;22.95;4.60;;;;;;;8.53;50.32;102130.53;5047344;28;20033;-56
2023/04/30 09:25:01;;;;;;;10.63;3.20;;;;;;;8.69;49.53;102136.44;5040681;28;20032;-58
2023/04/30 09:27:26;;;;;;;7.88;3.35;;;;;;;8.56;49.79;102135.75;5082116;28;20035;-57
2023/04/30 09:29:51;;;;;;;9.07;3.20;;;;;;;8.68;48.26;102131.19;5070359;28;20047;-55
2023/04/30 09:32:18;;;;;;;9.90;3.45;;;;;;;8.68;48.35;102128.56;5086570;28;20111;-57
2023/04/30 09:34:43;;;;;;;12.15;3.88;;;;;;;8.71;46.97;102136.41;5087331;28;20031;-57
2023/04/30 09:37:09;;;;;;;7.40;2.90;;;;;;;8.72;48.40;102132.91;5083934;28;20039;-57
2023/04/30 09:39:49;;;;;;;10.65;3.65;;;;;;;8.84;48.34;102135.31;5042834;28;20067;-56
2023/04/30 09:42:15;;;;;;;9.88;3.30;;;;;;;9.02;48.17;102138.56;5036825;28;20024;-56
2023/04/30 09:44:42;;;;;;;14.45;4.05;;;;;;;9.22;48.24;102136.47;5076861;28;20032;-56
2023/04/30 09:47:18;;;;;;;17.13;3.65;;;;;;;9.10;48.23;102132.25;5068011;28;20727;-56
2023/04/30 09:49:47;;;;;;;10.18;3.20;;;;;;;9.26;46.91;102138.13;5047219;28;20404;-56
2023/04/30 09:52:14;;;;;;;10.63;2.97;;;;;;;9.42;44.60;102127.31;5064868;28;20111;-57
2023/04/30 09:54:40;;;;;;;11.40;3.97;;;;;;;9.87;43.08;102129.91;5056542;28;20057;-55
2023/04/30 09:57:10;;;;;;;11.10;2.85;;;;;;;9.76;41.92;102132.78;5065758;28;20039;-56
2023/04/30 09:59:36;;;;;;;6.20;3.13;;;;;;;9.60;42.77;102121.66;5052485;28;20044;-56
2023/04/30 10:02:04;;;;;;;7.70;2.70;;;;;;;9.32;43.48;102121.34;5065333;28;20056;-56
2023/04/30 10:04:34;;;;;;;6.22;2.80;;;;;;;9.55;43.73;102124.38;5045119;28;20037;-57
2023/04/30 10:07:03;;;;;;;10.77;2.70;;;;;;;9.78;42.47;102120.41;5067162;28;20027;-59
2023/04/30 10:09:36;;;;;;;4.75;3.17;;;;;;;9.63;43.04;102116.31;5060560;28;20039;-57
2023/04/30 10:12:02;;;;;;;11.25;3.05;;;;;;;9.85;42.73;102121.16;5045038;28;20021;-58
2023/04/30 10:14:29;;;;;;;9.57;2.50;;;;;;;9.93;43.60;102122.72;5042398;28;20032;-57
2023/04/30 10:16:58;;;;;;;9.07;3.30;;;;;;;9.78;42.55;102119.56;5043419;28;20099;-58
2023/04/30 10:19:25;;;;;;;7.32;2.80;;;;;;;10.00;43.65;102120.81;5046722;28;20051;-57
2023/04/30 10:21:51;;;;;;;9.63;3.80;;;;;;;10.02;43.87;102119.03;5066422;28;20637;-57
2023/04/30 10:24:19;;;;;;;10.68;2.92;;;;;;;10.25;43.66;102110.59;5061958;28;20025;-58
2023/04/30 10:26:48;;;;;;;9.95;4.15;;;;;;;10.50;43.86;102103.91;5058953;28;20021;-57
2023/04/30 10:29:14;;;;;;;8.15;3.67;;;;;;;10.56;44.33;102112.56;5052073;28;20040;-57
2023/04/30 10:31:45;;;;;;;8.98;2.50;;;;;;;10.47;41.44;102105.72;5059240;28;20021;-59
2023/04/30 10:34:48;;;;;;;13.20;3.08;;;;;;;10.49;41.98;102100.38;5042331;28;20032;-57
2023/04/30 10:37:27;;;;;;;7.03;3.25;;;;;;;10.30;42.88;102102.56;5057634;28;20036;-57
2023/04/30 10:39:52;;;;;;;9.50;2.40;;;;;;;10.47;42.43;102103.06;5049253;28;20033;-57
2023/04/30 10:42:18;;;;;;;12.00;3.50;;;;;;;10.53;42.84;102086.22;5060657;28;20042;-57
2023/04/30 10:44:43;;;;;;;7.85;3.40;;;;;;;10.96;42.12;102092.19;5046685;28;20213;-57
2023/04/30 10:47:09;;;;;;;7.35;3.03;;;;;;;11.00;43.14;102085.91;5061203;28;20029;-58
2023/04/30 10:49:34;;;;;;;12.07;4.70;;;;;;;11.24;42.48;102087.03;5061810;28;20029;-57
2023/04/30 10:52:02;;;;;;;10.15;3.10;;;;;;;11.67;40.95;102082.31;5054785;28;20016;-58
2023/04/30 10:54:29;;;;;;;7.68;2.88;;;;;;;12.72;39.84;102089.69;5062288;28;20567;-57
2023/04/30 10:57:12;;;;;;;7.00;3.03;;;;;;;13.12;37.46;102080.38;5060277;28;20341;-59
2023/04/30 10:59:37;;;;;;;9.23;2.58;;;;;;;13.31;37.76;102075.28;5048756;28;20025;-55
2023/04/30 11:02:03;;;;;;;10.75;3.35;;;;;;;13.70;36.52;102080.94;5047979;28;20333;-55
2023/04/30 11:04:28;;;;;;;7.88;3.10;;;;;;;14.54;36.27;102081.19;5059820;28;20503;-55
2023/04/30 11:07:00;;;;;;;5.65;2.20;;;;;;;14.23;35.59;102076.25;5059800;28;20025;-55
2023/04/30 11:09:42;;;;;;;11.20;3.40;;;;;;;15.40;34.23;102076.69;5064132;28;20166;-55
2023/04/30 11:12:16;;;;;;;9.63;3.33;;;;;;;15.58;33.72;102081.16;5044435;28;20415;-55
2023/04/30 11:14:43;;;;;;;9.95;2.90;;;;;;;16.05;34.74;102079.94;5050565;28;20036;-55
2023/04/30 11:17:20;;;;;;;11.60;3.10;;;;;;;15.85;32.99;102072.00;5060384;28;20031;-55
2023/04/30 11:19:49;;;;;;;8.65;2.90;;;;;;;15.75;34.04;102072.38;5044198;28;20119;-55
2023/04/30 11:22:16;;;;;;;8.07;3.03;;;;;;;15.78;33.92;102063.41;5069891;28;20430;-56
2023/04/30 11:25:11;;;;;;;7.22;2.80;;;;;;;17.08;33.10;102073.94;5050821;28;20139;-55
2023/04/30 11:27:41;;;;;;;9.52;4.07;;;;;;;17.22;31.26;102067.88;5045671;28;20554;-54